Terminal Aerodrome Forecast
Issued by NWS

Home | Current Version | Previous Version | Text Only | Print | Product List | Glossary Off
Versions: 1 2 3 4 5 6 7 8 9 10 11 12

000
FTUS45 KGGW 231720
TAFGDV
TAF
KGDV 231720Z 2318/2418 31020G29KT P6SM SCT070
     FM240200 33011KT P6SM SKC
     FM241700 33012KT P6SM SCT060=

USA.gov is the U.S. government's official web portal to all federal, state and local government web resources and services.